Time;durP1;ratioP1;P1;durP2;ratioP2;P2;SDS_P1;SDS_P2;PMS_P1;PMS_P2;Temp;Humidity;BMP_temperature;BMP_pressure;BME280_temperature;BME280_humidity;BME280_pressure;Samples;Min_cycle;Max_cycle;Signal;HPM_P1;HPM_P2
2022/01/29 00:00:35;;;;;;;9.60;6.80;;;;;;;-0.88;81.87;97569.58;110445;1246;59747;-67
2022/01/29 00:03:10;;;;;;;5.60;4.60;;;;;;;-0.84;81.87;97573.41;110314;1247;59636;-68
2022/01/29 00:05:39;;;;;;;8.50;4.90;;;;;;;-0.94;82.20;97576.91;110570;1244;71584;-68
2022/01/29 00:08:08;;;;;;;9.20;7.00;;;;;;;-0.96;82.13;97589.46;110388;1246;68587;-68
2022/01/29 00:10:37;;;;;;;9.10;7.00;;;;;;;-0.96;82.34;97590.30;110199;1247;68764;-68
2022/01/29 00:13:07;;;;;;;7.30;5.80;;;;;;;-0.97;82.52;97594.94;110261;1247;59706;-68
2022/01/29 00:15:36;;;;;;;7.30;5.50;;;;;;;-1.00;82.35;97602.54;110190;1247;59688;-68
2022/01/29 00:18:06;;;;;;;9.40;7.10;;;;;;;-1.00;82.47;97609.55;110265;1247;71544;-70
2022/01/29 00:20:35;;;;;;;9.10;6.20;;;;;;;-0.97;82.35;97619.92;110343;1247;68439;-70
2022/01/29 00:23:04;;;;;;;9.70;6.60;;;;;;;-0.97;82.53;97620.27;110500;1246;69532;-68
2022/01/29 00:25:33;;;;;;;8.80;6.60;;;;;;;-0.96;82.65;97627.95;110290;1247;59654;-68
2022/01/29 00:28:03;;;;;;;8.30;6.30;;;;;;;-0.94;82.59;97629.95;110410;1246;59617;-68
2022/01/29 00:30:39;;;;;;;7.70;4.90;;;;;;;-0.90;82.42;97632.44;110450;1247;71621;-67
2022/01/29 00:33:10;;;;;;;7.60;6.40;;;;;;;-0.88;82.24;97638.70;110257;1247;68648;-68
2022/01/29 00:35:39;;;;;;;6.10;4.60;;;;;;;-0.84;81.98;97639.63;110308;1247;68670;-69
2022/01/29 00:38:08;;;;;;;8.40;5.70;;;;;;;-0.80;81.63;97644.83;110435;1246;59683;-70
2022/01/29 00:40:38;;;;;;;7.30;4.90;;;;;;;-0.78;81.46;97644.62;110328;1247;59669;-69
2022/01/29 00:43:07;;;;;;;6.70;5.10;;;;;;;-0.77;81.33;97647.01;110344;1247;71431;-70
2022/01/29 00:45:36;;;;;;;7.10;5.20;;;;;;;-0.79;81.30;97646.35;110245;1247;68603;-68
2022/01/29 00:48:05;;;;;;;7.70;5.20;;;;;;;-0.77;81.35;97649.05;110326;1247;69539;-68
2022/01/29 00:50:35;;;;;;;7.80;5.10;;;;;;;-0.77;81.17;97649.05;110218;1247;59757;-68
2022/01/29 00:53:04;;;;;;;5.20;3.70;;;;;;;-0.77;81.03;97650.08;110151;1247;59728;-68
2022/01/29 00:55:33;;;;;;;9.60;5.90;;;;;;;-0.77;80.93;97652.65;110168;1247;71550;-67
2022/01/29 00:58:02;;;;;;;8.30;5.30;;;;;;;-0.79;80.86;97653.02;110197;1247;68122;-67
2022/01/29 01:00:31;;;;;;;7.60;6.80;;;;;;;-0.81;80.83;97650.69;110240;1247;69419;-67
2022/01/29 01:03:01;;;;;;;8.80;6.40;;;;;;;-0.83;80.87;97647.49;110094;1248;59805;-69
2022/01/29 01:05:31;;;;;;;9.00;6.20;;;;;;;-0.92;80.98;97652.83;110270;1247;59685;-68
2022/01/29 01:08:00;;;;;;;8.90;5.60;;;;;;;-0.96;81.38;97658.58;110216;1248;71602;-68
2022/01/29 01:10:30;;;;;;;7.40;5.50;;;;;;;-0.98;81.37;97661.00;110217;1247;67221;-68
2022/01/29 01:12:59;;;;;;;10.00;6.30;;;;;;;-0.95;81.33;97660.77;110203;1247;69496;-69
2022/01/29 01:15:28;;;;;;;6.60;4.90;;;;;;;-0.91;81.54;97664.12;110232;1247;59714;-68
2022/01/29 01:17:57;;;;;;;9.40;6.80;;;;;;;-0.93;81.38;97670.30;110200;1248;59678;-69
2022/01/29 01:20:27;;;;;;;8.50;6.50;;;;;;;-0.97;81.57;97669.89;110211;1247;71567;-68
2022/01/29 01:22:56;;;;;;;10.50;6.70;;;;;;;-1.00;81.74;97667.04;110259;1247;68903;-68
2022/01/29 01:25:26;;;;;;;9.20;6.60;;;;;;;-0.95;81.54;97671.05;110223;1247;69467;-68
2022/01/29 01:27:56;;;;;;;7.60;5.80;;;;;;;-0.92;81.40;97670.95;110273;1247;59742;-67
2022/01/29 01:30:25;;;;;;;5.50;4.00;;;;;;;-0.89;81.17;97670.02;110244;1247;59669;-67
2022/01/29 01:32:55;;;;;;;7.30;4.60;;;;;;;-0.84;80.80;97668.90;110161;1247;71384;-69
2022/01/29 01:35:30;;;;;;;7.80;4.50;;;;;;;-0.85;80.57;97666.35;110194;1247;68546;-67
2022/01/29 01:38:17;;;;;;;7.00;5.40;;;;;;;-0.87;80.47;97664.17;110194;1247;69467;-67
2022/01/29 01:40:52;;;;;;;7.30;5.50;;;;;;;-0.90;80.31;97664.77;110213;1247;59724;-68
2022/01/29 01:43:21;;;;;;;7.20;5.60;;;;;;;-0.95;80.44;97669.48;110213;1247;59695;-67
2022/01/29 01:45:51;;;;;;;4.80;4.30;;;;;;;-0.99;80.62;97677.81;110234;1247;71481;-68
2022/01/29 01:48:20;;;;;;;7.00;5.60;;;;;;;-1.02;80.47;97677.87;110241;1247;68515;-68
2022/01/29 01:50:50;;;;;;;6.70;4.80;;;;;;;-0.97;80.30;97674.34;110200;1245;68955;-68
2022/01/29 01:53:19;;;;;;;8.80;6.00;;;;;;;-0.97;80.24;97682.38;110243;1246;59676;-68
2022/01/29 01:55:59;;;;;;;6.10;4.70;;;;;;;-0.95;80.17;97681.66;110198;1247;59681;-68
2022/01/29 01:58:29;;;;;;;4.60;3.90;;;;;;;-0.93;80.19;97685.55;110163;1247;71540;-68
2022/01/29 02:00:59;;;;;;;6.90;4.40;;;;;;;-0.91;80.09;97686.70;110279;1247;68550;-68
2022/01/29 02:03:29;;;;;;;6.90;5.00;;;;;;;-0.88;80.19;97690.72;110174;1247;69424;-68
2022/01/29 02:06:01;;;;;;;5.80;4.70;;;;;;;-0.85;80.05;97695.27;110313;1246;59678;-67
2022/01/29 02:08:31;;;;;;;6.70;3.90;;;;;;;-0.84;79.80;97698.16;110460;1247;59612;-68
2022/01/29 02:11:05;;;;;;;6.20;4.60;;;;;;;-0.80;79.86;97700.30;110249;1247;71507;-68
2022/01/29 02:13:35;;;;;;;7.50;4.70;;;;;;;-0.78;79.82;97704.86;110505;1246;67571;-68
2022/01/29 02:16:05;;;;;;;9.10;5.90;;;;;;;-0.78;79.80;97703.32;110220;1247;69181;-68
2022/01/29 02:18:35;;;;;;;6.50;4.50;;;;;;;-0.75;79.59;97705.83;110267;1247;59590;-68
2022/01/29 02:21:05;;;;;;;7.80;4.50;;;;;;;-0.72;79.40;97711.59;110267;1247;59671;-68
2022/01/29 02:23:36;;;;;;;7.80;4.00;;;;;;;-0.70;79.28;97713.40;110293;1247;70794;-69
2022/01/29 02:26:05;;;;;;;6.80;3.90;;;;;;;-0.69;79.11;97717.84;110015;1250;68400;-69
2022/01/29 02:28:34;;;;;;;7.00;4.40;;;;;;;-0.68;79.05;97719.86;110276;1247;68892;-68
2022/01/29 02:31:04;;;;;;;4.10;3.60;;;;;;;-0.68;79.03;97724.15;110389;1245;59746;-68
2022/01/29 02:33:38;;;;;;;6.30;4.70;;;;;;;-0.68;78.89;97729.98;110512;1246;59608;-70
2022/01/29 02:36:08;;;;;;;5.10;3.40;;;;;;;-0.68;79.00;97737.34;110192;1247;71509;-69
2022/01/29 02:38:37;;;;;;;5.30;4.20;;;;;;;-0.70;78.64;97738.55;110209;1247;68174;-69
2022/01/29 02:41:07;;;;;;;7.70;5.00;;;;;;;-0.68;78.69;97740.26;110244;1247;68784;-69
2022/01/29 02:43:46;;;;;;;6.00;4.70;;;;;;;-0.69;78.67;97737.19;110515;1247;59679;-68
2022/01/29 02:46:28;;;;;;;5.80;4.20;;;;;;;-0.71;78.57;97738.41;110382;1247;59736;-69
2022/01/29 02:48:57;;;;;;;4.10;2.80;;;;;;;-0.70;78.55;97739.41;110287;1245;72198;-69
2022/01/29 02:51:28;;;;;;;5.90;3.90;;;;;;;-0.69;78.55;97745.90;110231;1247;68631;-69
2022/01/29 02:53:57;;;;;;;5.30;4.00;;;;;;;-0.67;78.61;97753.92;110426;1246;69384;-69
2022/01/29 02:56:26;;;;;;;6.50;4.70;;;;;;;-0.67;78.43;97749.47;110289;1247;60112;-68
2022/01/29 02:58:55;;;;;;;5.40;3.80;;;;;;;-0.68;78.34;97749.33;110332;1247;60131;-69
2022/01/29 03:01:25;;;;;;;5.50;4.40;;;;;;;-0.68;78.33;97750.86;110368;1245;71557;-69
2022/01/29 03:03:54;;;;;;;6.50;4.30;;;;;;;-0.68;78.15;97754.27;110500;1247;67881;-68
2022/01/29 03:06:23;;;;;;;8.10;5.30;;;;;;;-0.69;77.87;97759.09;110291;1246;69531;-69
2022/01/29 03:08:53;;;;;;;8.30;5.90;;;;;;;-0.71;78.11;97760.34;110489;1245;59772;-68
2022/01/29 03:11:22;;;;;;;5.10;4.00;;;;;;;-0.75;77.99;97762.98;110238;1247;59717;-68
2022/01/29 03:13:52;;;;;;;6.80;4.40;;;;;;;-0.79;78.02;97764.95;110519;1245;71666;-69
2022/01/29 03:16:22;;;;;;;4.70;3.50;;;;;;;-0.80;78.12;97766.35;110328;1244;69211;-70
2022/01/29 03:18:51;;;;;;;7.20;4.40;;;;;;;-0.81;78.02;97768.77;110271;1245;68296;-70
2022/01/29 03:21:21;;;;;;;6.00;4.40;;;;;;;-0.84;77.54;97767.11;110559;1244;60068;-70
2022/01/29 03:23:51;;;;;;;4.50;3.30;;;;;;;-0.85;77.55;97770.90;110337;1247;59686;-70
2022/01/29 03:26:20;;;;;;;4.40;3.40;;;;;;;-0.87;77.66;97776.25;110270;1246;70769;-69
2022/01/29 03:28:49;;;;;;;6.00;3.60;;;;;;;-0.90;77.61;97777.37;110474;1246;68827;-67
2022/01/29 03:31:18;;;;;;;5.80;4.50;;;;;;;-0.94;77.65;97784.45;109967;1248;69346;-69
2022/01/29 03:33:47;;;;;;;4.40;3.60;;;;;;;-0.96;77.75;97786.23;110327;1245;59701;-69
2022/01/29 03:36:17;;;;;;;4.50;3.30;;;;;;;-0.97;77.84;97784.69;110304;1247;59633;-69
2022/01/29 03:38:46;;;;;;;5.50;4.00;;;;;;;-1.00;77.68;97783.20;110299;1247;70841;-70
2022/01/29 03:41:15;;;;;;;4.70;3.30;;;;;;;-1.03;77.51;97786.67;110233;1247;68602;-69
2022/01/29 03:43:48;;;;;;;5.70;4.10;;;;;;;-1.04;77.74;97793.55;110481;1247;68584;-69
2022/01/29 03:46:18;;;;;;;7.10;4.50;;;;;;;-1.07;77.74;97799.08;110280;1247;59665;-69
2022/01/29 03:48:48;;;;;;;9.40;5.40;;;;;;;-1.10;77.77;97794.19;110242;1247;59679;-68
2022/01/29 03:51:17;;;;;;;6.60;4.50;;;;;;;-1.14;77.83;97795.13;110235;1247;71442;-70
2022/01/29 03:53:47;;;;;;;6.10;4.30;;;;;;;-1.19;77.94;97798.65;110192;1247;67688;-70
2022/01/29 03:56:17;;;;;;;6.10;4.10;;;;;;;-1.19;78.08;97801.03;110249;1247;68723;-70
2022/01/29 03:58:46;;;;;;;6.50;3.90;;;;;;;-1.17;78.09;97804.40;110235;1247;59702;-70
2022/01/29 04:01:16;;;;;;;4.90;4.10;;;;;;;-1.17;78.01;97803.22;110352;1246;59736;-69
2022/01/29 04:03:45;;;;;;;6.40;4.00;;;;;;;-1.18;77.96;97804.27;110279;1246;70957;-71
2022/01/29 04:06:16;;;;;;;5.40;4.10;;;;;;;-1.19;78.04;97807.89;110307;1245;68566;-70
2022/01/29 04:08:45;;;;;;;5.90;3.70;;;;;;;-1.20;77.90;97807.22;110540;1246;69367;-67
2022/01/29 04:11:15;;;;;;;7.40;4.30;;;;;;;-1.21;77.82;97810.47;110503;1246;59653;-68
2022/01/29 04:13:47;;;;;;;5.30;3.60;;;;;;;-1.21;77.84;97810.48;110482;1247;59706;-67
2022/01/29 04:16:18;;;;;;;5.30;3.50;;;;;;;-1.20;77.80;97819.36;110215;1247;70664;-70
2022/01/29 04:18:47;;;;;;;;;;;;;;;-1.20;77.72;97822.09;110539;1246;67847;-70
2022/01/29 04:21:16;;;;;;;4.20;2.90;;;;;;;-1.20;77.67;97827.57;110165;1247;69259;-70
2022/01/29 04:23:46;;;;;;;5.30;4.40;;;;;;;-1.16;77.80;97826.80;110344;1244;59667;-71
2022/01/29 04:26:15;;;;;;;7.00;3.90;;;;;;;-1.14;77.80;97828.13;110531;1245;59729;-70
2022/01/29 04:28:46;;;;;;;6.70;4.30;;;;;;;-1.12;77.79;97830.66;110491;1245;71492;-70
2022/01/29 04:31:18;;;;;;;;;;;;;;;-1.10;77.61;97831.15;110360;1246;68589;-70
2022/01/29 04:33:48;;;;;;;5.80;3.70;;;;;;;-1.10;77.48;97831.65;110235;1247;69435;-70
2022/01/29 04:36:19;;;;;;;6.70;4.20;;;;;;;-1.10;77.39;97831.99;110195;1247;59742;-70
2022/01/29 04:38:49;;;;;;;5.20;3.40;;;;;;;-1.10;77.47;97835.42;110245;1247;59690;-70
2022/01/29 04:41:21;;;;;;;4.90;3.60;;;;;;;-1.09;77.49;97837.61;110532;1245;70841;-69
2022/01/29 04:43:50;;;;;;;6.10;3.90;;;;;;;-1.09;77.21;97838.46;110456;1246;68702;-69
2022/01/29 04:46:20;;;;;;;5.80;4.00;;;;;;;-1.09;77.23;97841.22;110241;1246;68731;-68
2022/01/29 04:48:49;;;;;;;5.10;3.20;;;;;;;-1.08;77.25;97847.35;110312;1246;59693;-69
2022/01/29 04:51:18;;;;;;;7.60;4.60;;;;;;;-1.07;77.17;97850.40;110236;1247;59695;-68
2022/01/29 04:53:48;;;;;;;5.20;3.70;;;;;;;-1.09;77.17;97850.77;110292;1245;70758;-70
2022/01/29 04:56:17;;;;;;;;;;;;;;;-1.08;77.22;97853.66;110577;1245;68409;-69
2022/01/29 04:58:47;;;;;;;6.70;4.40;;;;;;;-1.08;77.02;97852.14;110512;1246;69231;-68
2022/01/29 05:01:16;;;;;;;8.10;4.70;;;;;;;-1.08;76.88;97855.21;110199;1247;59692;-69
2022/01/29 05:03:46;;;;;;;6.10;4.50;;;;;;;-1.08;76.80;97859.30;110389;1247;59666;-68
2022/01/29 05:06:15;;;;;;;4.70;4.10;;;;;;;-1.07;76.94;97864.09;110280;1247;72282;-69
2022/01/29 05:08:44;;;;;;;7.10;5.40;;;;;;;-1.06;76.94;97866.98;110259;1247;68625;-68
2022/01/29 05:11:15;;;;;;;7.20;5.60;;;;;;;-1.06;76.67;97868.70;110245;1247;69453;-68
2022/01/29 05:13:44;;;;;;;5.40;4.10;;;;;;;-1.06;76.69;97870.08;110091;1247;59818;-68
2022/01/29 05:27:18;;;;;;;5.10;3.30;;;;;;;-0.97;76.76;97873.66;110419;1246;60094;-68
2022/01/29 05:29:47;;;;;;;5.50;4.00;;;;;;;-0.97;77.03;97873.83;110269;1247;59721;-69
2022/01/29 05:32:16;;;;;;;5.70;3.80;;;;;;;-0.97;76.91;97868.19;110503;1245;72148;-68
2022/01/29 05:34:45;;;;;;;7.20;4.00;;;;;;;-0.97;76.92;97876.05;110510;1245;68367;-68
2022/01/29 05:37:34;;;;;;;5.40;4.20;;;;;;;-0.97;76.77;97880.16;110356;1247;70073;-69
2022/01/29 05:40:03;;;;;;;6.50;4.50;;;;;;;-0.97;76.20;97882.38;110400;1247;59729;-69
2022/01/29 05:42:32;;;;;;;6.70;4.50;;;;;;;-0.99;76.65;97885.32;110323;1247;59637;-69
2022/01/29 05:45:01;;;;;;;6.20;4.60;;;;;;;-0.99;76.90;97893.89;110372;1246;70184;-69
2022/01/29 05:47:30;;;;;;;6.20;4.40;;;;;;;-0.98;76.76;97895.05;110483;1246;68554;-69
2022/01/29 05:49:58;;;;;;;6.90;4.60;;;;;;;-0.98;76.77;97898.64;110467;1245;68956;-69
2022/01/29 05:52:27;;;;;;;6.10;4.20;;;;;;;-0.97;76.54;97903.43;110388;1246;60214;-68
2022/01/29 05:55:00;;;;;;;7.30;4.80;;;;;;;-0.97;76.73;97907.87;110447;1245;59682;-68
2022/01/29 05:57:29;;;;;;;6.90;4.40;;;;;;;-0.96;76.76;97906.49;110542;1245;71399;-68
2022/01/29 05:59:58;;;;;;;6.90;4.90;;;;;;;-0.96;76.59;97913.52;110533;1245;68617;-68
2022/01/29 06:02:27;;;;;;;6.70;4.90;;;;;;;-0.97;76.58;97916.95;110430;1245;69447;-70
2022/01/29 06:04:56;;;;;;;6.50;4.50;;;;;;;-0.97;76.51;97920.20;110231;1247;59752;-66
2022/01/29 06:07:26;;;;;;;6.40;4.20;;;;;;;-0.97;76.20;97922.77;110127;1247;59694;-69
2022/01/29 06:09:54;;;;;;;7.20;4.70;;;;;;;-0.98;76.17;97923.45;110254;1247;71544;-67
2022/01/29 06:12:24;;;;;;;6.00;4.60;;;;;;;-0.99;76.11;97925.52;110381;1247;68599;-67
2022/01/29 06:14:53;;;;;;;7.70;4.50;;;;;;;-0.99;75.83;97930.15;110346;1247;69412;-67
2022/01/29 06:17:22;;;;;;;6.30;4.20;;;;;;;-1.01;75.86;97934.98;110239;1247;59729;-69
2022/01/29 06:19:52;;;;;;;6.20;4.50;;;;;;;-1.04;75.62;97939.98;110462;1244;59688;-67
2022/01/29 06:22:23;;;;;;;6.70;5.00;;;;;;;-1.05;75.61;97942.76;110473;1244;71571;-67
2022/01/29 06:24:52;;;;;;;8.10;4.80;;;;;;;-1.04;75.56;97948.39;110430;1244;69553;-66
2022/01/29 06:27:21;;;;;;;6.40;4.60;;;;;;;-1.04;75.48;97950.27;110370;1244;69085;-69
2022/01/29 06:29:50;;;;;;;8.10;4.80;;;;;;;-1.01;75.53;97953.80;110429;1244;59783;-69
2022/01/29 06:32:19;;;;;;;5.00;4.20;;;;;;;-0.98;75.44;97960.94;110537;1246;59672;-68
2022/01/29 06:34:48;;;;;;;7.40;4.90;;;;;;;-0.97;75.45;97960.58;110236;1247;71526;-69
2022/01/29 06:37:17;;;;;;;6.70;4.40;;;;;;;-0.95;75.20;97955.42;110509;1246;68972;-67
2022/01/29 06:39:50;;;;;;;7.40;4.60;;;;;;;-0.96;75.11;97957.65;110231;1247;69544;-67
2022/01/29 06:42:19;;;;;;;6.50;4.80;;;;;;;-0.95;74.94;97952.34;110256;1247;59667;-67
2022/01/29 06:44:48;;;;;;;6.60;5.00;;;;;;;-0.94;74.86;97953.84;110413;1244;59743;-67
2022/01/29 06:47:17;;;;;;;6.20;4.20;;;;;;;-0.92;75.01;97958.42;110351;1244;71524;-67
2022/01/29 06:49:46;;;;;;;5.40;4.50;;;;;;;-0.87;74.71;97962.11;110252;1247;67792;-67
2022/01/29 06:52:15;;;;;;;7.80;5.30;;;;;;;-0.84;74.64;97961.20;110234;1246;69837;-67
2022/01/29 06:54:43;;;;;;;7.10;5.20;;;;;;;-0.82;74.28;97961.50;110369;1244;60111;-67
2022/01/29 06:57:12;;;;;;;7.80;5.00;;;;;;;-0.80;74.23;97970.17;110575;1244;59616;-66
2022/01/29 06:59:41;;;;;;;5.50;4.80;;;;;;;-0.78;74.11;97973.57;110428;1244;72131;-66
2022/01/29 07:02:11;;;;;;;;;;;;;;;-0.76;73.72;97976.80;109847;1247;643853;-67
2022/01/29 07:04:41;;;;;;;6.60;4.50;;;;;;;-0.73;73.69;97981.86;110120;1248;69621;-67
2022/01/29 07:07:10;;;;;;;7.30;5.30;;;;;;;-0.70;73.53;97986.59;110420;1246;59729;-67
2022/01/29 07:09:39;;;;;;;7.50;4.90;;;;;;;-0.66;73.47;97989.61;110494;1246;59759;-67
2022/01/29 07:12:10;;;;;;;7.40;5.20;;;;;;;-0.65;72.96;97989.77;110516;1245;72296;-67
2022/01/29 07:14:40;;;;;;;9.30;5.10;;;;;;;-0.61;73.30;97994.13;110308;1246;68551;-68
2022/01/29 07:17:17;;;;;;;5.60;4.70;;;;;;;-0.55;73.10;97991.27;110565;1244;69520;-69
2022/01/29 07:19:46;;;;;;;6.80;5.20;;;;;;;-0.44;73.13;97998.10;110059;1249;59690;-67
2022/01/29 07:22:15;;;;;;;7.60;4.20;;;;;;;-0.37;72.96;97993.69;110154;1247;59695;-66
2022/01/29 07:24:44;;;;;;;6.50;4.50;;;;;;;-0.30;72.52;97987.20;110143;1246;71560;-67
2022/01/29 07:27:14;;;;;;;6.90;5.60;;;;;;;-0.25;71.78;97989.15;110200;1246;69111;-67
2022/01/29 07:29:44;;;;;;;7.00;5.20;;;;;;;-0.21;71.42;97984.28;110308;1246;69412;-66
2022/01/29 07:32:13;;;;;;;8.60;4.60;;;;;;;-0.15;71.79;97982.26;110421;1246;59699;-67
2022/01/29 07:34:42;;;;;;;18.00;12.40;;;;;;;-0.05;71.21;97979.33;110114;1247;59691;-67
2022/01/29 07:37:11;;;;;;;42.00;28.10;;;;;;;0.03;71.36;97980.18;110157;1247;70894;-66
2022/01/29 07:39:41;;;;;;;22.50;13.90;;;;;;;0.12;70.68;97980.31;110133;1245;68719;-68
2022/01/29 07:42:10;;;;;;;27.30;17.70;;;;;;;0.20;70.17;97981.85;110270;1247;69551;-66
2022/01/29 07:44:40;;;;;;;34.30;19.10;;;;;;;0.27;70.23;97982.57;110359;1247;59681;-67
2022/01/29 07:47:09;;;;;;;16.90;11.20;;;;;;;0.34;70.57;97985.66;110495;1245;59666;-67
2022/01/29 07:49:38;;;;;;;17.20;11.80;;;;;;;0.42;69.76;97983.23;110478;1245;71988;-67
2022/01/29 07:52:06;;;;;;;8.00;5.20;;;;;;;0.52;69.60;97984.73;110506;1244;69102;-67
2022/01/29 07:54:35;;;;;;;7.20;4.70;;;;;;;0.58;68.45;97982.69;110507;1244;69577;-67
2022/01/29 07:57:04;;;;;;;8.00;5.70;;;;;;;0.72;67.64;97983.39;110271;1247;59761;-67
2022/01/29 07:59:33;;;;;;;6.20;5.00;;;;;;;1.08;67.68;97986.09;110577;1245;59697;-66
2022/01/29 08:02:02;;;;;;;6.00;4.60;;;;;;;1.40;65.73;97991.77;110576;1245;70360;-67
2022/01/29 08:04:32;;;;;;;5.30;4.70;;;;;;;1.40;65.59;97992.79;110277;1247;68577;-66
2022/01/29 08:07:01;;;;;;;7.40;4.80;;;;;;;1.39;65.96;97989.05;110225;1247;68553;-67
2022/01/29 08:09:30;;;;;;;5.00;4.00;;;;;;;1.33;65.19;97991.27;110498;1246;59792;-66
2022/01/29 08:11:59;;;;;;;5.70;4.10;;;;;;;1.19;65.72;97992.84;110558;1246;59693;-66
2022/01/29 08:14:27;;;;;;;4.50;3.50;;;;;;;1.17;65.66;97998.55;110580;1246;70584;-67
2022/01/29 08:16:56;;;;;;;4.80;4.10;;;;;;;1.15;65.03;98000.31;110198;1247;67909;-69
2022/01/29 08:19:25;;;;;;;5.50;3.90;;;;;;;1.06;64.19;97999.20;110213;1246;68644;-67
2022/01/29 08:21:54;;;;;;;5.80;4.60;;;;;;;0.88;64.56;98007.17;110122;1247;59659;-67
2022/01/29 08:24:22;;;;;;;5.80;3.70;;;;;;;0.79;64.97;98009.96;110143;1247;59627;-67
2022/01/29 08:26:51;;;;;;;7.60;4.60;;;;;;;0.73;65.51;98013.71;110192;1247;72130;-67
2022/01/29 08:29:20;;;;;;;5.10;3.80;;;;;;;0.71;66.13;98020.99;110203;1247;68996;-67
2022/01/29 08:31:49;;;;;;;7.40;4.10;;;;;;;0.74;66.03;98016.45;110183;1247;70052;-67
2022/01/29 08:34:17;;;;;;;6.90;4.40;;;;;;;0.67;65.05;98008.22;110223;1247;59706;-67
2022/01/29 08:36:46;;;;;;;7.50;5.00;;;;;;;0.68;65.82;98015.39;110220;1247;59652;-66
2022/01/29 08:39:15;;;;;;;7.00;4.30;;;;;;;0.54;65.20;98016.23;110100;1247;72101;-67
2022/01/29 08:41:45;;;;;;;6.50;5.30;;;;;;;0.46;65.82;98016.75;110103;1247;69032;-67
2022/01/29 08:44:14;;;;;;;5.90;5.00;;;;;;;0.56;66.16;98022.17;110097;1246;69939;-67
2022/01/29 08:46:43;;;;;;;6.50;5.70;;;;;;;0.83;65.68;98021.20;110251;1246;59782;-67
2022/01/29 08:49:13;;;;;;;;;;;;;;;1.59;63.48;98020.45;109996;1247;60104;-66
2022/01/29 08:51:42;;;;;;;5.90;4.40;;;;;;;2.31;61.14;98017.21;110310;1246;71380;-66
2022/01/29 08:54:11;;;;;;;5.40;4.50;;;;;;;3.20;58.67;98019.17;110260;1247;69006;-65
2022/01/29 08:56:40;;;;;;;6.30;4.60;;;;;;;3.45;56.99;98023.51;110461;1244;69425;-68
2022/01/29 08:59:09;;;;;;;5.90;4.90;;;;;;;3.61;57.07;98021.21;110519;1243;59679;-66
2022/01/29 09:01:38;;;;;;;6.30;4.50;;;;;;;4.04;56.89;98027.45;110554;1244;59663;-69
2022/01/29 09:04:08;;;;;;;4.80;3.70;;;;;;;4.99;52.75;98028.60;110262;1244;71418;-67
2022/01/29 09:06:37;;;;;;;6.60;4.60;;;;;;;5.78;50.76;98037.05;110539;1244;68032;-67
2022/01/29 09:09:07;;;;;;;5.20;4.00;;;;;;;5.75;49.93;98040.63;110555;1243;69880;-67
2022/01/29 09:11:36;;;;;;;6.40;4.60;;;;;;;4.95;50.74;98045.52;110552;1244;59677;-66
2022/01/29 09:14:04;;;;;;;6.80;4.50;;;;;;;4.17;52.57;98046.80;110598;1244;59696;-65
2022/01/29 09:16:33;;;;;;;5.20;3.40;;;;;;;3.36;54.45;98047.91;110382;1244;70954;-65
2022/01/29 09:19:02;;;;;;;6.20;4.20;;;;;;;3.01;55.97;98048.22;110383;1244;68400;-66
2022/01/29 09:21:31;;;;;;;6.70;4.20;;;;;;;2.73;57.08;98049.14;110370;1244;69953;-66
2022/01/29 09:24:00;;;;;;;7.10;4.60;;;;;;;2.61;57.77;98055.52;110450;1244;59692;-69
2022/01/29 09:26:29;;;;;;;5.10;3.70;;;;;;;2.46;58.01;98051.98;110276;1247;59695;-67
2022/01/29 09:28:58;;;;;;;6.10;4.10;;;;;;;2.33;58.43;98052.59;110290;1247;72363;-69
2022/01/29 09:31:26;;;;;;;5.90;3.80;;;;;;;2.21;58.38;98052.07;110502;1246;68452;-67
2022/01/29 09:33:57;;;;;;;5.30;3.80;;;;;;;1.97;58.94;98059.96;110473;1244;69398;-68
2022/01/29 09:36:26;;;;;;;6.40;4.10;;;;;;;1.72;59.69;98056.36;110547;1244;59755;-68
2022/01/29 09:38:55;;;;;;;4.40;3.90;;;;;;;1.63;60.30;98054.38;110519;1244;59740;-67
2022/01/29 09:41:25;;;;;;;6.20;4.10;;;;;;;1.52;60.47;98057.23;110528;1244;71473;-66
2022/01/29 09:43:56;;;;;;;5.60;4.40;;;;;;;1.47;61.02;98056.34;110589;1244;68716;-66
2022/01/29 09:46:30;;;;;;;6.60;4.50;;;;;;;1.46;61.00;98051.73;110546;1244;70000;-66
2022/01/29 09:48:59;;;;;;;7.30;4.30;;;;;;;1.59;60.91;98046.08;110303;1244;59773;-66
2022/01/29 09:51:31;;;;;;;7.10;4.50;;;;;;;2.84;58.44;98036.88;110405;1244;59739;-66
2022/01/29 09:53:59;;;;;;;5.60;4.30;;;;;;;3.64;55.14;98030.09;110619;1242;71959;-66
2022/01/29 09:56:30;;;;;;;4.90;4.00;;;;;;;3.77;54.57;98031.85;110574;1244;68602;-67
2022/01/29 09:58:59;;;;;;;5.60;4.40;;;;;;;3.57;55.15;98036.54;110557;1244;69843;-67
2022/01/29 10:01:28;;;;;;;5.90;5.10;;;;;;;3.35;54.86;98032.30;110344;1244;59676;-66
2022/01/29 10:04:00;;;;;;;5.10;3.40;;;;;;;3.56;53.58;98028.27;110589;1244;59688;-68
2022/01/29 10:06:29;;;;;;;7.90;4.70;;;;;;;5.13;50.68;98025.21;110573;1244;71653;-67
2022/01/29 10:09:01;;;;;;;4.70;3.30;;;;;;;6.66;46.57;98027.52;110592;1243;67886;-67
2022/01/29 10:11:30;;;;;;;8.00;3.80;;;;;;;7.92;43.14;98025.23;110515;1244;70067;-66
2022/01/29 10:14:04;;;;;;;10.50;6.30;;;;;;;7.83;42.20;98029.06;110530;1244;59725;-67
2022/01/29 10:16:40;;;;;;;5.50;3.80;;;;;;;7.61;42.32;98017.16;110599;1244;59698;-66
2022/01/29 10:19:12;;;;;;;4.60;3.60;;;;;;;6.95;43.42;98021.45;110571;1244;72111;-67
2022/01/29 10:21:45;;;;;;;5.50;4.20;;;;;;;6.03;45.32;98025.08;110607;1244;69036;-66
2022/01/29 10:24:17;;;;;;;5.60;4.20;;;;;;;5.47;46.76;98026.23;110511;1244;69902;-67
2022/01/29 10:26:49;;;;;;;5.40;4.70;;;;;;;5.19;48.05;98033.46;110587;1244;59687;-66
2022/01/29 10:29:20;;;;;;;7.10;4.80;;;;;;;4.75;48.82;98027.69;110517;1244;59696;-66
2022/01/29 10:31:51;;;;;;;7.10;4.50;;;;;;;4.51;49.72;98038.42;110260;1244;72170;-65
2022/01/29 10:34:26;;;;;;;6.70;4.10;;;;;;;4.20;50.52;98037.20;110575;1244;67625;-65
2022/01/29 10:37:21;;;;;;;4.20;3.70;;;;;;;4.06;51.28;98038.42;110520;1244;69412;-68
2022/01/29 10:40:16;;;;;;;5.90;3.90;;;;;;;3.79;51.49;98040.42;110552;1244;59770;-66
2022/01/29 10:42:45;;;;;;;11.70;5.50;;;;;;;3.48;52.45;98036.66;110583;1244;59634;-66
2022/01/29 10:45:14;;;;;;;3.80;3.20;;;;;;;3.18;53.02;98036.48;110336;1244;72044;-66
2022/01/29 10:47:58;;;;;;;10.70;6.20;;;;;;;2.79;54.03;98037.75;110373;1244;68573;-65
2022/01/29 10:50:27;;;;;;;5.10;4.60;;;;;;;2.79;54.78;98038.95;110385;1244;69318;-68
2022/01/29 10:53:26;;;;;;;5.50;4.40;;;;;;;3.08;53.82;98040.10;110548;1244;59911;-68
2022/01/29 10:56:00;;;;;;;19.50;9.30;;;;;;;3.16;53.92;98046.04;110444;1244;59670;-65
2022/01/29 10:58:31;;;;;;;10.20;5.90;;;;;;;3.66;53.53;98043.94;110604;1244;71588;-66
2022/01/29 11:01:21;;;;;;;14.90;8.90;;;;;;;5.14;50.37;98047.14;110133;1245;67381;-66
2022/01/29 11:03:54;;;;;;;18.10;8.10;;;;;;;6.31;47.28;98041.63;110397;1244;69424;-66
2022/01/29 11:06:32;;;;;;;17.30;8.20;;;;;;;6.10;45.42;98039.63;110374;1244;59782;-68
2022/01/29 11:09:01;;;;;;;11.80;6.30;;;;;;;6.00;45.37;98042.84;110512;1242;59748;-66
2022/01/29 11:11:30;;;;;;;33.00;12.50;;;;;;;6.30;45.67;98041.35;110062;1247;70957;-66
2022/01/29 11:14:15;;;;;;;8.40;4.60;;;;;;;6.72;43.49;98038.84;110497;1244;67820;-68
2022/01/29 11:16:46;;;;;;;6.60;3.30;;;;;;;7.30;41.04;98049.20;110521;1244;69975;-65
2022/01/29 11:19:16;;;;;;;8.20;4.90;;;;;;;8.62;39.99;98048.92;110475;1244;59687;-66
2022/01/29 11:21:48;;;;;;;4.80;3.40;;;;;;;9.60;35.89;98045.86;110437;1244;59667;-66
2022/01/29 11:24:19;;;;;;;5.30;3.10;;;;;;;10.24;35.54;98042.73;110536;1244;69679;-66
2022/01/29 11:26:49;;;;;;;3.80;3.10;;;;;;;9.73;34.60;98040.87;110556;1244;67725;-68
2022/01/29 11:29:36;;;;;;;5.00;3.80;;;;;;;8.63;36.64;98034.15;110499;1244;68987;-68
2022/01/29 11:32:24;;;;;;;4.20;3.30;;;;;;;7.86;38.08;98036.89;110282;1247;59723;-68
2022/01/29 11:35:08;;;;;;;5.50;4.40;;;;;;;6.93;39.78;98041.32;110487;1244;59695;-69
2022/01/29 11:37:43;;;;;;;4.60;3.70;;;;;;;6.24;41.05;98048.02;110542;1244;71348;-68
2022/01/29 11:40:33;;;;;;;5.30;4.20;;;;;;;5.85;42.52;98057.31;110546;1244;68591;-68
2022/01/29 11:43:22;;;;;;;6.00;3.30;;;;;;;5.42;43.53;98061.55;110392;1244;69437;-67
2022/01/29 11:45:58;;;;;;;5.80;3.80;;;;;;;4.89;44.34;98056.82;110413;1244;60087;-68
2022/01/29 11:48:29;;;;;;;6.50;3.70;;;;;;;5.11;43.87;98061.48;110399;1244;59776;-66
2022/01/29 11:51:01;;;;;;;6.30;3.50;;;;;;;6.09;41.94;98059.91;110366;1245;71504;-66
2022/01/29 11:53:45;;;;;;;4.80;3.00;;;;;;;5.92;40.74;98061.53;110330;1244;68990;-68
2022/01/29 11:56:30;;;;;;;3.00;2.70;;;;;;;5.11;41.83;98054.54;110568;1244;69220;-68